Terminal Aerodrome Forecast
Issued by NWS

Home | Current Version | Previous Version | Text Only | Print | Product List | Glossary Off
Versions: 1 2 3 4 5 6 7 8 9 10 11 12 13 14 15 16 17

000
FTUS43 KBIS 310600 AAA
TAFJMS
TAF AMD
KJMS 310637Z 3107/0106 13008KT P6SM SCT005 OVC140
      TEMPO 3107/3108 12010KT 5SM TSRA OVC045CB
     FM310800 13010KT 6SM -SHRA BR OVC090
     FM311200 13006KT P6SM BKN010
     FM311700 27010KT P6SM BKN030
     FM010000 31009KT P6SM BKN120=

USA.gov is the U.S. government's official web portal to all federal, state and local government web resources and services.